sensor_id;sensor_type;location;lat;lon;timestamp;temperature;humidity
13409;DHT22;6775;49.574;11.170;2022-07-06T00:01:04;17.50;94.20
13409;DHT22;6775;49.574;11.170;2022-07-06T00:03:32;17.50;93.90
13409;DHT22;6775;49.574;11.170;2022-07-06T00:06:02;17.50;93.80
13409;DHT22;6775;49.574;11.170;2022-07-06T00:08:29;17.50;93.80
13409;DHT22;6775;49.574;11.170;2022-07-06T00:10:57;17.50;93.70
13409;DHT22;6775;49.574;11.170;2022-07-06T00:13:25;17.50;93.60
13409;DHT22;6775;49.574;11.170;2022-07-06T00:15:53;17.50;93.60
13409;DHT22;6775;49.574;11.170;2022-07-06T00:18:21;17.50;93.50
13409;DHT22;6775;49.574;11.170;2022-07-06T00:20:49;17.50;93.40
13409;DHT22;6775;49.574;11.170;2022-07-06T00:23:19;17.50;93.30
13409;DHT22;6775;49.574;11.170;2022-07-06T00:25:47;17.50;93.40
13409;DHT22;6775;49.574;11.170;2022-07-06T00:28:15;17.50;93.30
13409;DHT22;6775;49.574;11.170;2022-07-06T00:30:43;17.50;93.40
13409;DHT22;6775;49.574;11.170;2022-07-06T00:33:11;17.50;93.60
13409;DHT22;6775;49.574;11.170;2022-07-06T00:35:39;17.50;93.60
13409;DHT22;6775;49.574;11.170;2022-07-06T00:38:07;17.50;93.70
13409;DHT22;6775;49.574;11.170;2022-07-06T00:40:36;17.50;93.70
13409;DHT22;6775;49.574;11.170;2022-07-06T00:43:04;17.50;93.80
13409;DHT22;6775;49.574;11.170;2022-07-06T00:45:32;17.40;93.90
13409;DHT22;6775;49.574;11.170;2022-07-06T00:48:00;17.40;94.10
13409;DHT22;6775;49.574;11.170;2022-07-06T00:50:28;17.40;94.30
13409;DHT22;6775;49.574;11.170;2022-07-06T00:52:59;17.40;94.30
13409;DHT22;6775;49.574;11.170;2022-07-06T00:55:29;17.40;94.60
13409;DHT22;6775;49.574;11.170;2022-07-06T00:58:01;17.40;94.70
13409;DHT22;6775;49.574;11.170;2022-07-06T01:00:29;17.30;94.70
13409;DHT22;6775;49.574;11.170;2022-07-06T01:02:57;17.30;95.00
13409;DHT22;6775;49.574;11.170;2022-07-06T01:05:25;17.30;95.20
13409;DHT22;6775;49.574;11.170;2022-07-06T01:07:54;17.20;95.10
13409;DHT22;6775;49.574;11.170;2022-07-06T01:10:23;17.20;95.60
13409;DHT22;6775;49.574;11.170;2022-07-06T01:12:51;17.20;95.90
13409;DHT22;6775;49.574;11.170;2022-07-06T01:15:22;17.10;96.20
13409;DHT22;6775;49.574;11.170;2022-07-06T01:17:51;17.10;96.40
13409;DHT22;6775;49.574;11.170;2022-07-06T01:20:21;17.10;96.60
13409;DHT22;6775;49.574;11.170;2022-07-06T01:22:51;17.00;96.70
13409;DHT22;6775;49.574;11.170;2022-07-06T01:25:20;17.00;96.80
13409;DHT22;6775;49.574;11.170;2022-07-06T01:27:48;17.00;97.00
13409;DHT22;6775;49.574;11.170;2022-07-06T01:30:17;16.90;97.10
13409;DHT22;6775;49.574;11.170;2022-07-06T01:32:46;16.90;97.30
13409;DHT22;6775;49.574;11.170;2022-07-06T01:35:15;16.90;97.50
13409;DHT22;6775;49.574;11.170;2022-07-06T01:37:44;16.80;97.60
13409;DHT22;6775;49.574;11.170;2022-07-06T01:40:12;16.80;97.60
13409;DHT22;6775;49.574;11.170;2022-07-06T01:42:40;16.80;97.80
13409;DHT22;6775;49.574;11.170;2022-07-06T01:45:09;16.80;97.90
13409;DHT22;6775;49.574;11.170;2022-07-06T01:47:37;16.70;97.90
13409;DHT22;6775;49.574;11.170;2022-07-06T01:50:08;16.80;98.20
13409;DHT22;6775;49.574;11.170;2022-07-06T01:52:36;16.70;98.40
13409;DHT22;6775;49.574;11.170;2022-07-06T01:55:06;16.80;98.60
13409;DHT22;6775;49.574;11.170;2022-07-06T01:57:34;16.80;98.60
13409;DHT22;6775;49.574;11.170;2022-07-06T02:00:05;16.80;98.70
13409;DHT22;6775;49.574;11.170;2022-07-06T02:02:33;16.70;98.70
13409;DHT22;6775;49.574;11.170;2022-07-06T02:05:01;16.70;98.90
13409;DHT22;6775;49.574;11.170;2022-07-06T02:07:29;16.70;99.10
13409;DHT22;6775;49.574;11.170;2022-07-06T02:09:57;16.60;99.40
13409;DHT22;6775;49.574;11.170;2022-07-06T02:12:26;16.60;99.90
13409;DHT22;6775;49.574;11.170;2022-07-06T02:14:54;16.50;99.90
13409;DHT22;6775;49.574;11.170;2022-07-06T02:17:22;16.40;99.90
13409;DHT22;6775;49.574;11.170;2022-07-06T02:19:50;16.30;99.90
13409;DHT22;6775;49.574;11.170;2022-07-06T02:22:18;16.20;99.90
13409;DHT22;6775;49.574;11.170;2022-07-06T02:24:46;16.10;99.90
13409;DHT22;6775;49.574;11.170;2022-07-06T02:31:15;16.00;99.90
13409;DHT22;6775;49.574;11.170;2022-07-06T02:33:43;15.90;99.90
13409;DHT22;6775;49.574;11.170;2022-07-06T02:36:11;15.80;99.90
13409;DHT22;6775;49.574;11.170;2022-07-06T02:38:39;15.80;99.90
13409;DHT22;6775;49.574;11.170;2022-07-06T02:41:07;15.80;99.90
13409;DHT22;6775;49.574;11.170;2022-07-06T02:43:37;15.70;99.90
13409;DHT22;6775;49.574;11.170;2022-07-06T02:46:06;15.80;99.90
13409;DHT22;6775;49.574;11.170;2022-07-06T02:48:36;15.70;99.90
13409;DHT22;6775;49.574;11.170;2022-07-06T02:51:04;15.70;99.90
13409;DHT22;6775;49.574;11.170;2022-07-06T02:53:31;15.70;99.90
13409;DHT22;6775;49.574;11.170;2022-07-06T02:55:59;15.80;99.90
13409;DHT22;6775;49.574;11.170;2022-07-06T02:58:27;15.70;99.90
13409;DHT22;6775;49.574;11.170;2022-07-06T03:00:55;15.80;99.90
13409;DHT22;6775;49.574;11.170;2022-07-06T03:03:23;15.70;99.90
13409;DHT22;6775;49.574;11.170;2022-07-06T03:05:52;15.70;99.90
13409;DHT22;6775;49.574;11.170;2022-07-06T03:08:20;15.60;99.90
13409;DHT22;6775;49.574;11.170;2022-07-06T03:10:49;15.50;99.90
13409;DHT22;6775;49.574;11.170;2022-07-06T03:13:16;15.40;99.90
13409;DHT22;6775;49.574;11.170;2022-07-06T03:15:44;15.40;99.90
13409;DHT22;6775;49.574;11.170;2022-07-06T03:18:12;15.30;99.90
13409;DHT22;6775;49.574;11.170;2022-07-06T03:20:40;15.30;99.90
13409;DHT22;6775;49.574;11.170;2022-07-06T03:23:09;15.20;99.90
13409;DHT22;6775;49.574;11.170;2022-07-06T03:25:37;15.20;99.90
13409;DHT22;6775;49.574;11.170;2022-07-06T03:28:05;15.20;99.90
13409;DHT22;6775;49.574;11.170;2022-07-06T03:30:33;15.30;99.90
13409;DHT22;6775;49.574;11.170;2022-07-06T03:33:01;15.40;99.90
13409;DHT22;6775;49.574;11.170;2022-07-06T03:35:28;15.40;99.90
13409;DHT22;6775;49.574;11.170;2022-07-06T03:37:56;15.40;99.90
13409;DHT22;6775;49.574;11.170;2022-07-06T03:40:25;15.30;99.90
13409;DHT22;6775;49.574;11.170;2022-07-06T03:42:53;15.30;99.90
13409;DHT22;6775;49.574;11.170;2022-07-06T03:45:21;15.30;99.90
13409;DHT22;6775;49.574;11.170;2022-07-06T03:47:49;15.30;99.90
13409;DHT22;6775;49.574;11.170;2022-07-06T03:50:17;15.30;99.90
13409;DHT22;6775;49.574;11.170;2022-07-06T03:52:45;15.30;99.90
13409;DHT22;6775;49.574;11.170;2022-07-06T03:55:13;15.40;99.90
13409;DHT22;6775;49.574;11.170;2022-07-06T03:57:42;15.40;99.90
13409;DHT22;6775;49.574;11.170;2022-07-06T04:00:10;15.50;99.90
13409;DHT22;6775;49.574;11.170;2022-07-06T04:02:39;15.60;99.90
13409;DHT22;6775;49.574;11.170;2022-07-06T04:05:07;15.60;99.90
13409;DHT22;6775;49.574;11.170;2022-07-06T04:07:35;15.60;99.90
13409;DHT22;6775;49.574;11.170;2022-07-06T04:10:04;15.60;99.90
13409;DHT22;6775;49.574;11.170;2022-07-06T04:12:32;15.70;99.90
13409;DHT22;6775;49.574;11.170;2022-07-06T04:15:09;15.70;99.90
13409;DHT22;6775;49.574;11.170;2022-07-06T04:17:38;15.70;99.90
13409;DHT22;6775;49.574;11.170;2022-07-06T04:20:23;15.80;99.90
13409;DHT22;6775;49.574;11.170;2022-07-06T04:22:52;15.80;99.90
13409;DHT22;6775;49.574;11.170;2022-07-06T04:25:20;15.80;99.90
13409;DHT22;6775;49.574;11.170;2022-07-06T04:27:48;15.90;99.90
13409;DHT22;6775;49.574;11.170;2022-07-06T04:30:17;16.00;99.90
13409;DHT22;6775;49.574;11.170;2022-07-06T04:32:45;16.00;99.90
13409;DHT22;6775;49.574;11.170;2022-07-06T04:35:13;16.20;99.90
13409;DHT22;6775;49.574;11.170;2022-07-06T04:37:41;16.30;99.90
13409;DHT22;6775;49.574;11.170;2022-07-06T04:40:09;16.40;99.90
13409;DHT22;6775;49.574;11.170;2022-07-06T04:42:44;16.50;99.90
13409;DHT22;6775;49.574;11.170;2022-07-06T04:45:12;16.60;99.90
13409;DHT22;6775;49.574;11.170;2022-07-06T04:47:41;16.70;99.90
13409;DHT22;6775;49.574;11.170;2022-07-06T04:50:11;16.70;99.90
13409;DHT22;6775;49.574;11.170;2022-07-06T04:52:39;16.80;99.90
13409;DHT22;6775;49.574;11.170;2022-07-06T04:55:07;16.90;99.90
13409;DHT22;6775;49.574;11.170;2022-07-06T04:57:35;17.00;99.90
13409;DHT22;6775;49.574;11.170;2022-07-06T05:00:05;17.00;99.90
13409;DHT22;6775;49.574;11.170;2022-07-06T05:02:33;17.10;99.90
13409;DHT22;6775;49.574;11.170;2022-07-06T05:05:02;17.10;99.90
13409;DHT22;6775;49.574;11.170;2022-07-06T05:07:30;17.20;99.90
13409;DHT22;6775;49.574;11.170;2022-07-06T05:10:00;17.20;99.90
13409;DHT22;6775;49.574;11.170;2022-07-06T05:12:28;17.20;99.90
13409;DHT22;6775;49.574;11.170;2022-07-06T05:14:56;17.30;99.90
13409;DHT22;6775;49.574;11.170;2022-07-06T05:17:24;17.40;99.90
13409;DHT22;6775;49.574;11.170;2022-07-06T05:19:55;17.50;99.90
13409;DHT22;6775;49.574;11.170;2022-07-06T05:22:24;17.50;99.90
13409;DHT22;6775;49.574;11.170;2022-07-06T05:24:53;17.50;99.90
13409;DHT22;6775;49.574;11.170;2022-07-06T05:27:20;17.60;99.90
13409;DHT22;6775;49.574;11.170;2022-07-06T05:29:48;17.60;99.90
13409;DHT22;6775;49.574;11.170;2022-07-06T05:32:16;17.70;99.90
13409;DHT22;6775;49.574;11.170;2022-07-06T05:34:44;17.80;99.90
13409;DHT22;6775;49.574;11.170;2022-07-06T05:37:12;17.80;99.90
13409;DHT22;6775;49.574;11.170;2022-07-06T05:39:41;17.90;99.90
13409;DHT22;6775;49.574;11.170;2022-07-06T05:42:11;18.00;99.90
13409;DHT22;6775;49.574;11.170;2022-07-06T05:44:39;18.00;99.90
13409;DHT22;6775;49.574;11.170;2022-07-06T05:47:07;18.00;99.90
13409;DHT22;6775;49.574;11.170;2022-07-06T05:49:52;18.10;99.90
13409;DHT22;6775;49.574;11.170;2022-07-06T05:52:38;18.10;99.90
13409;DHT22;6775;49.574;11.170;2022-07-06T05:55:08;18.20;99.90
13409;DHT22;6775;49.574;11.170;2022-07-06T05:57:36;18.20;99.90
13409;DHT22;6775;49.574;11.170;2022-07-06T06:00:05;18.40;99.90
13409;DHT22;6775;49.574;11.170;2022-07-06T06:02:38;18.40;99.90
13409;DHT22;6775;49.574;11.170;2022-07-06T06:05:07;18.40;99.90
13409;DHT22;6775;49.574;11.170;2022-07-06T06:07:35;18.40;99.90
13409;DHT22;6775;49.574;11.170;2022-07-06T06:10:05;18.50;99.90
13409;DHT22;6775;49.574;11.170;2022-07-06T06:12:34;18.60;99.90
13409;DHT22;6775;49.574;11.170;2022-07-06T06:15:03;18.60;99.90
13409;DHT22;6775;49.574;11.170;2022-07-06T06:17:31;18.70;99.90
13409;DHT22;6775;49.574;11.170;2022-07-06T06:19:59;18.80;99.90
13409;DHT22;6775;49.574;11.170;2022-07-06T06:22:27;18.90;99.90
13409;DHT22;6775;49.574;11.170;2022-07-06T06:24:55;18.90;99.90
13409;DHT22;6775;49.574;11.170;2022-07-06T06:27:23;18.90;99.90
13409;DHT22;6775;49.574;11.170;2022-07-06T06:29:52;19.00;99.90
13409;DHT22;6775;49.574;11.170;2022-07-06T06:32:20;19.00;99.90
13409;DHT22;6775;49.574;11.170;2022-07-06T06:34:48;19.10;99.90
13409;DHT22;6775;49.574;11.170;2022-07-06T06:37:15;19.10;99.90
13409;DHT22;6775;49.574;11.170;2022-07-06T06:39:43;19.20;99.90
13409;DHT22;6775;49.574;11.170;2022-07-06T06:42:11;19.20;99.90
13409;DHT22;6775;49.574;11.170;2022-07-06T06:44:39;19.30;99.90
13409;DHT22;6775;49.574;11.170;2022-07-06T06:47:08;19.30;99.90
13409;DHT22;6775;49.574;11.170;2022-07-06T06:49:36;19.40;99.90
13409;DHT22;6775;49.574;11.170;2022-07-06T06:52:04;19.50;99.90
13409;DHT22;6775;49.574;11.170;2022-07-06T06:54:52;19.60;99.90
13409;DHT22;6775;49.574;11.170;2022-07-06T06:57:20;19.60;99.90
13409;DHT22;6775;49.574;11.170;2022-07-06T06:59:48;19.70;99.90
13409;DHT22;6775;49.574;11.170;2022-07-06T07:02:17;19.80;99.70
13409;DHT22;6775;49.574;11.170;2022-07-06T07:04:45;19.90;99.90
13409;DHT22;6775;49.574;11.170;2022-07-06T07:07:13;20.00;99.50
13409;DHT22;6775;49.574;11.170;2022-07-06T07:09:41;20.10;99.40
13409;DHT22;6775;49.574;11.170;2022-07-06T07:12:09;20.30;98.80
13409;DHT22;6775;49.574;11.170;2022-07-06T07:14:38;20.40;98.30
13409;DHT22;6775;49.574;11.170;2022-07-06T07:17:06;20.60;98.00
13409;DHT22;6775;49.574;11.170;2022-07-06T07:19:35;20.70;97.50
13409;DHT22;6775;49.574;11.170;2022-07-06T07:22:04;20.80;97.30
13409;DHT22;6775;49.574;11.170;2022-07-06T07:24:32;20.90;96.90
13409;DHT22;6775;49.574;11.170;2022-07-06T07:27:00;21.00;96.60
13409;DHT22;6775;49.574;11.170;2022-07-06T07:29:28;21.00;95.80
13409;DHT22;6775;49.574;11.170;2022-07-06T07:31:55;21.10;95.60
13409;DHT22;6775;49.574;11.170;2022-07-06T07:34:23;21.20;95.80
13409;DHT22;6775;49.574;11.170;2022-07-06T07:36:53;21.20;95.10
13409;DHT22;6775;49.574;11.170;2022-07-06T07:39:20;21.20;95.10
13409;DHT22;6775;49.574;11.170;2022-07-06T07:41:48;21.30;94.90
13409;DHT22;6775;49.574;11.170;2022-07-06T07:44:17;21.30;94.90
13409;DHT22;6775;49.574;11.170;2022-07-06T07:46:45;21.50;94.80
13409;DHT22;6775;49.574;11.170;2022-07-06T07:49:13;21.70;94.30
13409;DHT22;6775;49.574;11.170;2022-07-06T07:51:47;21.70;93.80
13409;DHT22;6775;49.574;11.170;2022-07-06T07:54:16;21.70;93.90
13409;DHT22;6775;49.574;11.170;2022-07-06T07:56:44;21.70;93.40
13409;DHT22;6775;49.574;11.170;2022-07-06T07:59:12;21.70;93.40
13409;DHT22;6775;49.574;11.170;2022-07-06T08:01:40;21.80;94.00
13409;DHT22;6775;49.574;11.170;2022-07-06T08:04:08;21.90;93.50
13409;DHT22;6775;49.574;11.170;2022-07-06T08:06:36;22.00;93.00
13409;DHT22;6775;49.574;11.170;2022-07-06T08:09:04;22.00;93.00
13409;DHT22;6775;49.574;11.170;2022-07-06T08:11:35;22.10;92.40
13409;DHT22;6775;49.574;11.170;2022-07-06T08:14:04;22.10;92.10
13409;DHT22;6775;49.574;11.170;2022-07-06T08:16:31;22.30;92.20
13409;DHT22;6775;49.574;11.170;2022-07-06T08:19:00;22.30;92.00
13409;DHT22;6775;49.574;11.170;2022-07-06T08:21:36;22.40;91.80
13409;DHT22;6775;49.574;11.170;2022-07-06T08:24:04;22.50;91.20
13409;DHT22;6775;49.574;11.170;2022-07-06T08:26:32;22.60;90.40
13409;DHT22;6775;49.574;11.170;2022-07-06T08:29:01;22.60;89.70
13409;DHT22;6775;49.574;11.170;2022-07-06T08:31:29;22.50;89.20
13409;DHT22;6775;49.574;11.170;2022-07-06T08:34:17;22.50;89.50
13409;DHT22;6775;49.574;11.170;2022-07-06T08:36:45;22.50;89.20
13409;DHT22;6775;49.574;11.170;2022-07-06T08:39:13;22.50;88.40
13409;DHT22;6775;49.574;11.170;2022-07-06T08:41:42;22.60;87.70
13409;DHT22;6775;49.574;11.170;2022-07-06T08:44:13;22.70;88.00
13409;DHT22;6775;49.574;11.170;2022-07-06T08:46:41;22.90;87.80
13409;DHT22;6775;49.574;11.170;2022-07-06T08:49:13;23.10;86.70
13409;DHT22;6775;49.574;11.170;2022-07-06T08:51:42;23.20;87.10
13409;DHT22;6775;49.574;11.170;2022-07-06T08:54:11;23.40;87.90
13409;DHT22;6775;49.574;11.170;2022-07-06T08:56:39;23.50;87.70
13409;DHT22;6775;49.574;11.170;2022-07-06T08:59:15;23.70;86.70
13409;DHT22;6775;49.574;11.170;2022-07-06T09:01:46;23.80;86.40
13409;DHT22;6775;49.574;11.170;2022-07-06T09:04:16;23.90;85.30
13409;DHT22;6775;49.574;11.170;2022-07-06T09:06:46;23.90;82.80
13409;DHT22;6775;49.574;11.170;2022-07-06T09:09:18;24.00;83.40
13409;DHT22;6775;49.574;11.170;2022-07-06T09:11:47;24.00;81.00
13409;DHT22;6775;49.574;11.170;2022-07-06T09:14:16;24.10;80.30
13409;DHT22;6775;49.574;11.170;2022-07-06T09:16:46;24.20;78.50
13409;DHT22;6775;49.574;11.170;2022-07-06T09:19:16;24.10;78.60
13409;DHT22;6775;49.574;11.170;2022-07-06T09:21:44;24.30;78.90
13409;DHT22;6775;49.574;11.170;2022-07-06T09:24:12;24.40;78.80
13409;DHT22;6775;49.574;11.170;2022-07-06T09:26:40;24.60;79.20
13409;DHT22;6775;49.574;11.170;2022-07-06T09:29:08;24.70;78.90
13409;DHT22;6775;49.574;11.170;2022-07-06T09:31:39;24.70;79.20
13409;DHT22;6775;49.574;11.170;2022-07-06T09:34:08;24.80;79.00
13409;DHT22;6775;49.574;11.170;2022-07-06T09:36:38;24.90;79.30
13409;DHT22;6775;49.574;11.170;2022-07-06T09:39:15;24.90;79.50
13409;DHT22;6775;49.574;11.170;2022-07-06T09:41:44;25.00;79.00
13409;DHT22;6775;49.574;11.170;2022-07-06T09:44:12;25.00;78.60
13409;DHT22;6775;49.574;11.170;2022-07-06T09:46:42;25.20;76.40
13409;DHT22;6775;49.574;11.170;2022-07-06T09:49:10;25.30;76.50
13409;DHT22;6775;49.574;11.170;2022-07-06T09:51:38;25.40;77.80
13409;DHT22;6775;49.574;11.170;2022-07-06T09:54:07;25.40;77.40
13409;DHT22;6775;49.574;11.170;2022-07-06T09:56:36;25.40;76.80
13409;DHT22;6775;49.574;11.170;2022-07-06T09:59:11;25.40;75.60
13409;DHT22;6775;49.574;11.170;2022-07-06T10:01:39;25.10;75.40
13409;DHT22;6775;49.574;11.170;2022-07-06T10:04:11;25.00;75.90
13409;DHT22;6775;49.574;11.170;2022-07-06T10:06:39;24.80;76.00
13409;DHT22;6775;49.574;11.170;2022-07-06T10:09:08;24.80;75.60
13409;DHT22;6775;49.574;11.170;2022-07-06T10:11:40;24.90;76.00
13409;DHT22;6775;49.574;11.170;2022-07-06T10:14:08;25.10;73.40
13409;DHT22;6775;49.574;11.170;2022-07-06T10:16:38;25.30;73.80
13409;DHT22;6775;49.574;11.170;2022-07-06T10:19:07;25.40;72.30
13409;DHT22;6775;49.574;11.170;2022-07-06T10:21:38;25.40;72.70
13409;DHT22;6775;49.574;11.170;2022-07-06T10:24:08;25.30;72.80
13409;DHT22;6775;49.574;11.170;2022-07-06T10:26:36;25.10;73.40
13409;DHT22;6775;49.574;11.170;2022-07-06T10:29:05;25.10;74.20
13409;DHT22;6775;49.574;11.170;2022-07-06T10:31:37;25.30;74.30
13409;DHT22;6775;49.574;11.170;2022-07-06T10:34:07;25.40;74.10
13409;DHT22;6775;49.574;11.170;2022-07-06T10:36:42;25.60;73.10
13409;DHT22;6775;49.574;11.170;2022-07-06T10:39:11;25.90;71.80
13409;DHT22;6775;49.574;11.170;2022-07-06T10:41:56;25.90;71.40
13409;DHT22;6775;49.574;11.170;2022-07-06T10:44:25;25.70;71.20
13409;DHT22;6775;49.574;11.170;2022-07-06T10:46:54;25.40;71.00
13409;DHT22;6775;49.574;11.170;2022-07-06T10:49:24;25.30;72.80
13409;DHT22;6775;49.574;11.170;2022-07-06T10:52:16;25.40;72.40
13409;DHT22;6775;49.574;11.170;2022-07-06T10:54:44;25.70;71.80
13409;DHT22;6775;49.574;11.170;2022-07-06T10:57:14;25.90;71.70
13409;DHT22;6775;49.574;11.170;2022-07-06T11:00:00;25.90;71.00
13409;DHT22;6775;49.574;11.170;2022-07-06T11:02:37;25.90;70.60
13409;DHT22;6775;49.574;11.170;2022-07-06T11:05:11;25.90;71.00
13409;DHT22;6775;49.574;11.170;2022-07-06T11:07:50;25.90;71.70
13409;DHT22;6775;49.574;11.170;2022-07-06T11:10:18;25.90;70.50
13409;DHT22;6775;49.574;11.170;2022-07-06T11:12:46;25.60;72.60
13409;DHT22;6775;49.574;11.170;2022-07-06T11:15:48;25.30;71.20
13409;DHT22;6775;49.574;11.170;2022-07-06T11:18:19;25.00;72.60
13409;DHT22;6775;49.574;11.170;2022-07-06T11:21:21;24.80;73.00
13409;DHT22;6775;49.574;11.170;2022-07-06T11:23:50;24.70;74.10
13409;DHT22;6775;49.574;11.170;2022-07-06T11:26:19;24.90;74.10
13409;DHT22;6775;49.574;11.170;2022-07-06T11:28:48;25.20;74.40
13409;DHT22;6775;49.574;11.170;2022-07-06T11:31:19;25.50;72.00
13409;DHT22;6775;49.574;11.170;2022-07-06T11:33:47;25.60;71.70
13409;DHT22;6775;49.574;11.170;2022-07-06T11:36:17;25.50;70.40
13409;DHT22;6775;49.574;11.170;2022-07-06T11:38:46;25.60;71.70
13409;DHT22;6775;49.574;11.170;2022-07-06T11:41:17;25.80;72.30
13409;DHT22;6775;49.574;11.170;2022-07-06T11:43:46;26.00;70.30
13409;DHT22;6775;49.574;11.170;2022-07-06T11:46:22;25.90;68.60
13409;DHT22;6775;49.574;11.170;2022-07-06T11:48:52;25.90;69.70
13409;DHT22;6775;49.574;11.170;2022-07-06T11:51:20;26.10;70.30
13409;DHT22;6775;49.574;11.170;2022-07-06T11:53:50;26.30;70.20
13409;DHT22;6775;49.574;11.170;2022-07-06T11:56:23;26.40;70.40
13409;DHT22;6775;49.574;11.170;2022-07-06T11:58:54;26.40;70.20
13409;DHT22;6775;49.574;11.170;2022-07-06T12:01:23;26.10;69.70
13409;DHT22;6775;49.574;11.170;2022-07-06T12:03:51;25.80;68.20
13409;DHT22;6775;49.574;11.170;2022-07-06T12:06:21;25.30;70.00
13409;DHT22;6775;49.574;11.170;2022-07-06T12:08:50;25.00;70.20
13409;DHT22;6775;49.574;11.170;2022-07-06T12:11:20;24.80;71.60
13409;DHT22;6775;49.574;11.170;2022-07-06T12:13:51;24.60;71.40
13409;DHT22;6775;49.574;11.170;2022-07-06T12:16:20;24.60;71.20
13409;DHT22;6775;49.574;11.170;2022-07-06T12:18:50;24.70;72.10
13409;DHT22;6775;49.574;11.170;2022-07-06T12:21:19;24.80;71.70
13409;DHT22;6775;49.574;11.170;2022-07-06T12:23:49;24.80;71.20
13409;DHT22;6775;49.574;11.170;2022-07-06T12:26:19;24.70;72.10
13409;DHT22;6775;49.574;11.170;2022-07-06T12:29:00;24.80;71.70
13409;DHT22;6775;49.574;11.170;2022-07-06T12:31:33;24.90;72.10
13409;DHT22;6775;49.574;11.170;2022-07-06T12:34:02;25.10;70.70
13409;DHT22;6775;49.574;11.170;2022-07-06T12:36:30;25.40;68.60
13409;DHT22;6775;49.574;11.170;2022-07-06T12:38:58;25.70;65.50
13409;DHT22;6775;49.574;11.170;2022-07-06T12:41:31;25.80;65.10
13409;DHT22;6775;49.574;11.170;2022-07-06T12:44:03;25.90;65.80
13409;DHT22;6775;49.574;11.170;2022-07-06T12:46:33;25.90;66.50
13409;DHT22;6775;49.574;11.170;2022-07-06T12:49:04;26.00;66.10
13409;DHT22;6775;49.574;11.170;2022-07-06T12:51:58;26.20;66.50
13409;DHT22;6775;49.574;11.170;2022-07-06T12:54:29;26.30;66.10
13409;DHT22;6775;49.574;11.170;2022-07-06T12:57:02;26.40;66.00
13409;DHT22;6775;49.574;11.170;2022-07-06T12:59:35;26.30;64.80
13409;DHT22;6775;49.574;11.170;2022-07-06T13:02:05;26.10;65.30
13409;DHT22;6775;49.574;11.170;2022-07-06T13:04:35;26.20;66.20
13409;DHT22;6775;49.574;11.170;2022-07-06T13:07:03;26.30;64.80
13409;DHT22;6775;49.574;11.170;2022-07-06T13:09:34;26.50;65.60
13409;DHT22;6775;49.574;11.170;2022-07-06T13:12:02;26.60;62.60
13409;DHT22;6775;49.574;11.170;2022-07-06T13:14:31;26.40;63.20
13409;DHT22;6775;49.574;11.170;2022-07-06T13:16:59;26.20;63.50
13409;DHT22;6775;49.574;11.170;2022-07-06T13:19:28;25.90;64.60
13409;DHT22;6775;49.574;11.170;2022-07-06T13:21:55;25.80;65.50
13409;DHT22;6775;49.574;11.170;2022-07-06T13:24:23;25.80;64.70
13409;DHT22;6775;49.574;11.170;2022-07-06T13:26:51;25.70;64.70
13409;DHT22;6775;49.574;11.170;2022-07-06T13:29:19;25.80;65.70
13409;DHT22;6775;49.574;11.170;2022-07-06T13:31:49;25.90;65.50
13409;DHT22;6775;49.574;11.170;2022-07-06T13:34:17;26.10;65.60
13409;DHT22;6775;49.574;11.170;2022-07-06T13:36:45;26.00;64.60
13409;DHT22;6775;49.574;11.170;2022-07-06T13:39:13;25.70;65.00
13409;DHT22;6775;49.574;11.170;2022-07-06T13:41:40;25.50;65.40
13409;DHT22;6775;49.574;11.170;2022-07-06T13:44:08;25.40;67.00
13409;DHT22;6775;49.574;11.170;2022-07-06T13:46:41;25.50;65.60
13409;DHT22;6775;49.574;11.170;2022-07-06T13:49:11;25.70;64.70
13409;DHT22;6775;49.574;11.170;2022-07-06T13:51:39;25.70;64.60
13409;DHT22;6775;49.574;11.170;2022-07-06T13:54:08;25.70;64.70
13409;DHT22;6775;49.574;11.170;2022-07-06T13:56:37;25.80;64.30
13409;DHT22;6775;49.574;11.170;2022-07-06T13:59:05;25.90;65.50
13409;DHT22;6775;49.574;11.170;2022-07-06T14:01:33;26.00;65.30
13409;DHT22;6775;49.574;11.170;2022-07-06T14:04:01;26.20;65.00
13409;DHT22;6775;49.574;11.170;2022-07-06T14:06:30;26.30;63.00
13409;DHT22;6775;49.574;11.170;2022-07-06T14:08:58;26.40;63.30
13409;DHT22;6775;49.574;11.170;2022-07-06T14:11:26;26.50;63.20
13409;DHT22;6775;49.574;11.170;2022-07-06T14:13:54;26.50;62.90
13409;DHT22;6775;49.574;11.170;2022-07-06T14:16:22;26.60;63.00
13409;DHT22;6775;49.574;11.170;2022-07-06T14:18:50;26.70;61.90
13409;DHT22;6775;49.574;11.170;2022-07-06T14:21:17;26.70;61.60
13409;DHT22;6775;49.574;11.170;2022-07-06T14:23:47;26.80;60.70
13409;DHT22;6775;49.574;11.170;2022-07-06T14:26:16;26.80;60.90
13409;DHT22;6775;49.574;11.170;2022-07-06T14:28:44;26.80;61.30
13409;DHT22;6775;49.574;11.170;2022-07-06T14:31:12;26.80;60.90
13409;DHT22;6775;49.574;11.170;2022-07-06T14:33:47;26.70;60.60
13409;DHT22;6775;49.574;11.170;2022-07-06T14:36:15;26.70;61.80
13409;DHT22;6775;49.574;11.170;2022-07-06T14:38:43;26.70;62.70
13409;DHT22;6775;49.574;11.170;2022-07-06T14:41:12;26.70;62.60
13409;DHT22;6775;49.574;11.170;2022-07-06T14:43:40;26.70;62.20
13409;DHT22;6775;49.574;11.170;2022-07-06T14:46:08;26.70;61.70
13409;DHT22;6775;49.574;11.170;2022-07-06T14:48:36;26.70;61.40
13409;DHT22;6775;49.574;11.170;2022-07-06T14:51:04;26.60;61.50
13409;DHT22;6775;49.574;11.170;2022-07-06T14:53:32;26.50;60.20
13409;DHT22;6775;49.574;11.170;2022-07-06T14:56:00;26.20;60.80
13409;DHT22;6775;49.574;11.170;2022-07-06T14:58:29;25.90;61.70
13409;DHT22;6775;49.574;11.170;2022-07-06T15:00:57;25.80;61.90
13409;DHT22;6775;49.574;11.170;2022-07-06T15:03:25;25.80;60.90
13409;DHT22;6775;49.574;11.170;2022-07-06T15:05:55;25.70;60.90
13409;DHT22;6775;49.574;11.170;2022-07-06T15:08:23;25.70;61.70
13409;DHT22;6775;49.574;11.170;2022-07-06T15:10:51;25.60;61.60
13409;DHT22;6775;49.574;11.170;2022-07-06T15:13:19;25.60;62.30
13409;DHT22;6775;49.574;11.170;2022-07-06T15:15:48;25.60;62.50
13409;DHT22;6775;49.574;11.170;2022-07-06T15:18:22;25.50;62.70
13409;DHT22;6775;49.574;11.170;2022-07-06T15:20:51;25.50;62.50
13409;DHT22;6775;49.574;11.170;2022-07-06T15:23:19;25.40;62.30
13409;DHT22;6775;49.574;11.170;2022-07-06T15:25:48;25.40;62.10
13409;DHT22;6775;49.574;11.170;2022-07-06T15:28:22;25.40;60.60
13409;DHT22;6775;49.574;11.170;2022-07-06T15:30:55;25.30;61.00
13409;DHT22;6775;49.574;11.170;2022-07-06T15:33:22;25.30;61.40
13409;DHT22;6775;49.574;11.170;2022-07-06T15:35:51;25.30;62.00
13409;DHT22;6775;49.574;11.170;2022-07-06T15:38:19;25.40;60.50
13409;DHT22;6775;49.574;11.170;2022-07-06T15:40:47;25.40;59.90
13409;DHT22;6775;49.574;11.170;2022-07-06T15:43:18;25.40;59.50
13409;DHT22;6775;49.574;11.170;2022-07-06T15:45:46;25.40;58.50
13409;DHT22;6775;49.574;11.170;2022-07-06T15:48:16;25.30;58.40